createdAt,value
2022-10-17T00:02:09.919Z,9.78
2022-10-17T00:04:36.687Z,9.83
2022-10-17T00:07:03.311Z,9.91
2022-10-17T00:09:29.978Z,9.83
2022-10-17T00:11:56.869Z,9.91
2022-10-17T00:14:23.436Z,9.91
2022-10-17T00:16:50.095Z,9.99
2022-10-17T00:19:16.730Z,9.82
2022-10-17T00:21:43.398Z,9.68
2022-10-17T00:24:10.010Z,9.56
2022-10-17T00:26:36.668Z,9.52
2022-10-17T00:29:03.356Z,9.44
2022-10-17T00:31:30.021Z,9.38
2022-10-17T00:33:56.681Z,9.44
2022-10-17T00:36:27.464Z,9.48
2022-10-17T00:38:56.507Z,9.56
2022-10-17T00:41:24.825Z,9.58
2022-10-17T00:43:56.845Z,9.48
2022-10-17T00:46:24.988Z,9.41
2022-10-17T00:48:52.743Z,9.32
2022-10-17T00:51:20.428Z,9.35
2022-10-17T00:53:47.051Z,9.31
2022-10-17T00:56:13.902Z,9.23
2022-10-17T00:58:40.507Z,9.23
2022-10-17T01:01:07.110Z,9.16
2022-10-17T01:03:33.801Z,9.12
2022-10-17T01:06:00.583Z,9.07
2022-10-17T01:08:27.242Z,9.03
2022-10-17T01:10:59.833Z,9.03
2022-10-17T01:13:48.693Z,8.96
2022-10-17T01:16:29.650Z,9.13
2022-10-17T01:19:03.785Z,9.03
2022-10-17T01:21:54.100Z,9.02
2022-10-17T01:24:49.382Z,8.91
2022-10-17T01:27:37.227Z,8.82
2022-10-17T01:30:29.538Z,8.80
2022-10-17T01:33:08.572Z,8.75
2022-10-17T01:35:41.754Z,8.75
2022-10-17T01:38:14.165Z,8.74
2022-10-17T01:40:51.096Z,8.74
2022-10-17T01:43:23.659Z,8.74
2022-10-17T01:45:59.221Z,8.66
2022-10-17T01:48:28.157Z,8.60
2022-10-17T01:51:01.477Z,8.56
2022-10-17T01:53:31.865Z,8.56
2022-10-17T01:56:00.312Z,8.51
2022-10-17T01:58:32.710Z,8.50
2022-10-17T02:01:04.896Z,8.55
2022-10-17T02:03:31.633Z,8.60
2022-10-17T02:05:58.258Z,8.58
2022-10-17T02:08:26.338Z,8.46
2022-10-17T02:11:02.893Z,8.43
2022-10-17T02:13:54.332Z,8.32
2022-10-17T02:16:55.149Z,8.28
2022-10-17T02:19:46.573Z,8.32
2022-10-17T02:22:17.661Z,8.24
2022-10-17T02:24:48.717Z,8.21
2022-10-17T02:27:21.158Z,8.23
2022-10-17T02:29:49.202Z,8.20
2022-10-17T02:32:46.690Z,8.20
2022-10-17T02:35:16.186Z,8.18
2022-10-17T02:37:43.580Z,8.15
2022-10-17T02:40:10.751Z,8.12
2022-10-17T02:42:37.367Z,8.14
2022-10-17T02:45:04.884Z,8.14
2022-10-17T02:47:36.720Z,8.07
2022-10-17T02:50:03.510Z,8.07
2022-10-17T02:52:39.047Z,8.04
2022-10-17T02:55:08.453Z,8.09
2022-10-17T02:58:00.306Z,7.97
2022-10-17T03:00:27.014Z,7.94
2022-10-17T03:02:53.877Z,8.01
2022-10-17T03:05:25.421Z,8.01
2022-10-17T03:07:52.262Z,7.89
2022-10-17T03:10:19.596Z,7.84
2022-10-17T03:12:46.240Z,7.83
2022-10-17T03:15:13.404Z,7.82
2022-10-17T03:17:40.091Z,7.72
2022-10-17T03:20:07.278Z,7.72
2022-10-17T03:22:33.917Z,7.75
2022-10-17T03:25:00.532Z,7.77
2022-10-17T03:27:27.270Z,7.81
2022-10-17T03:29:54.234Z,7.90
2022-10-17T03:32:22.104Z,7.97
2022-10-17T03:34:48.743Z,7.98
2022-10-17T03:37:15.418Z,7.87
2022-10-17T03:39:42.031Z,7.82
2022-10-17T03:42:08.820Z,7.89
2022-10-17T03:44:35.454Z,7.86
2022-10-17T03:47:02.098Z,7.90
2022-10-17T03:49:28.686Z,7.85
2022-10-17T03:51:55.277Z,7.92
2022-10-17T03:54:22.001Z,7.89
2022-10-17T03:56:48.659Z,7.83
2022-10-17T03:59:15.377Z,7.81
2022-10-17T04:01:42.161Z,7.79
2022-10-17T04:04:08.921Z,7.78
2022-10-17T04:06:35.870Z,7.82
2022-10-17T04:09:02.629Z,7.80
2022-10-17T04:11:29.313Z,7.83
2022-10-17T04:13:56.508Z,7.83
2022-10-17T04:16:23.673Z,7.86
2022-10-17T04:19:16.632Z,7.92
2022-10-17T04:21:43.273Z,7.88
2022-10-17T04:24:10.768Z,7.96
2022-10-17T04:26:37.419Z,7.91
2022-10-17T04:29:03.984Z,7.89
2022-10-17T04:31:30.584Z,7.86
2022-10-17T04:33:57.247Z,7.86
2022-10-17T04:36:24.023Z,7.80
2022-10-17T04:38:50.856Z,7.73
2022-10-17T04:41:18.008Z,7.80
2022-10-17T04:43:47.000Z,7.84
2022-10-17T04:46:16.876Z,7.83
2022-10-17T04:48:43.561Z,7.91
2022-10-17T04:51:14.678Z,7.91
2022-10-17T04:53:42.038Z,7.96
2022-10-17T04:56:13.691Z,7.94
2022-10-17T04:58:40.686Z,7.92
2022-10-17T05:01:12.844Z,7.89
2022-10-17T05:03:40.005Z,7.98
2022-10-17T05:06:07.637Z,7.95
2022-10-17T05:08:34.916Z,7.93
2022-10-17T05:11:01.793Z,7.88
2022-10-17T05:13:28.402Z,7.92
2022-10-17T05:15:59.027Z,7.87
2022-10-17T05:18:26.043Z,7.96
2022-10-17T05:20:52.704Z,7.99
2022-10-17T05:23:19.300Z,7.95
2022-10-17T05:25:45.893Z,8.01
2022-10-17T05:28:12.497Z,8.02
2022-10-17T05:30:39.113Z,8.06
2022-10-17T05:33:05.722Z,8.05
2022-10-17T05:35:32.817Z,8.00
2022-10-17T05:37:59.397Z,8.07
2022-10-17T05:40:25.997Z,8.05
2022-10-17T05:42:52.769Z,8.11
2022-10-17T05:45:20.157Z,8.13
2022-10-17T05:47:46.777Z,8.13
2022-10-17T05:50:13.407Z,8.18
2022-10-17T05:52:40.555Z,8.10
2022-10-17T05:55:09.070Z,8.08
2022-10-17T05:57:35.745Z,8.04
2022-10-17T06:00:02.359Z,8.02
2022-10-17T06:02:29.329Z,8.14
2022-10-17T06:04:56.205Z,8.12
2022-10-17T06:07:22.863Z,8.13
2022-10-17T06:09:49.489Z,8.14
2022-10-17T06:12:16.260Z,8.12
2022-10-17T06:14:42.837Z,8.11
2022-10-17T06:17:14.860Z,8.23
2022-10-17T06:19:42.552Z,8.22
2022-10-17T06:22:09.151Z,8.28
2022-10-17T06:24:35.805Z,8.23
2022-10-17T06:27:02.432Z,8.27
2022-10-17T06:29:29.000Z,8.32
2022-10-17T06:31:55.628Z,8.39
2022-10-17T06:34:22.543Z,8.39
2022-10-17T06:36:49.258Z,8.44
2022-10-17T06:39:16.254Z,8.47
2022-10-17T06:41:42.939Z,8.52
2022-10-17T06:44:09.507Z,8.60
2022-10-17T06:46:36.238Z,8.60
2022-10-17T06:49:02.984Z,8.66
2022-10-17T06:51:29.673Z,8.68
2022-10-17T06:53:57.602Z,8.67
2022-10-17T06:56:24.330Z,8.69
2022-10-17T06:58:50.994Z,8.72
2022-10-17T07:01:17.571Z,8.91
2022-10-17T07:03:44.285Z,9.11
2022-10-17T07:06:10.894Z,9.21
2022-10-17T07:08:37.714Z,9.32
2022-10-17T07:11:17.705Z,9.31
2022-10-17T07:13:44.673Z,9.42
2022-10-17T07:16:11.480Z,9.52
2022-10-17T07:18:38.150Z,9.57
2022-10-17T07:21:05.221Z,9.64
2022-10-17T07:23:31.931Z,9.82
2022-10-17T07:26:01.725Z,9.91
2022-10-17T07:28:28.430Z,9.99
2022-10-17T07:30:55.429Z,10.16
2022-10-17T07:33:22.042Z,10.23
2022-10-17T07:35:48.638Z,10.27
2022-10-17T07:38:15.318Z,10.39
2022-10-17T07:40:41.968Z,10.43
2022-10-17T07:43:09.346Z,10.53
2022-10-17T07:45:36.101Z,10.65
2022-10-17T07:48:02.691Z,10.71
2022-10-17T07:50:29.645Z,10.74
2022-10-17T07:52:56.462Z,10.82
2022-10-17T07:55:23.478Z,10.90
2022-10-17T07:57:50.100Z,11.01
2022-10-17T08:00:16.772Z,11.18
2022-10-17T08:02:43.452Z,11.43
2022-10-17T08:05:10.324Z,11.67
2022-10-17T08:07:38.129Z,11.80
2022-10-17T08:10:05.353Z,11.91
2022-10-17T08:12:32.630Z,12.04
2022-10-17T08:15:02.457Z,12.22
2022-10-17T08:17:30.088Z,12.23
2022-10-17T08:19:56.793Z,12.50
2022-10-17T08:22:27.382Z,12.63
2022-10-17T08:24:54.269Z,12.82
2022-10-17T08:27:20.904Z,13.39
2022-10-17T08:29:47.504Z,14.23
2022-10-17T08:32:14.167Z,14.66
2022-10-17T08:34:40.813Z,14.81
2022-10-17T08:37:07.501Z,14.57
2022-10-17T08:39:34.191Z,14.88
2022-10-17T08:42:18.804Z,14.80
2022-10-17T08:45:12.615Z,14.43
2022-10-17T08:47:45.039Z,14.39
2022-10-17T08:50:15.021Z,14.95
2022-10-17T08:52:48.047Z,16.20
2022-10-17T08:55:29.373Z,17.06
2022-10-17T08:57:56.037Z,18.42
2022-10-17T09:00:22.678Z,18.94
2022-10-17T09:03:31.528Z,19.45
2022-10-17T09:06:25.975Z,20.36
2022-10-17T09:09:03.273Z,21.04
2022-10-17T09:11:48.917Z,21.66
2022-10-17T09:14:37.059Z,22.41
2022-10-17T09:17:04.985Z,22.62
2022-10-17T09:20:14.983Z,23.17
2022-10-17T09:22:50.042Z,22.89
2022-10-17T09:25:17.718Z,23.69
2022-10-17T09:28:01.599Z,24.06
2022-10-17T09:30:44.695Z,23.59
2022-10-17T09:33:34.406Z,24.27
2022-10-17T09:36:04.230Z,24.53
2022-10-17T09:38:37.866Z,25.10
2022-10-17T09:41:15.775Z,25.14
2022-10-17T09:43:54.752Z,24.93
2022-10-17T09:46:33.136Z,25.25
2022-10-17T09:49:14.781Z,25.09
2022-10-17T09:51:43.889Z,25.46
2022-10-17T09:54:58.909Z,26.01
2022-10-17T09:57:25.543Z,26.22
2022-10-17T10:00:00.266Z,26.08
2022-10-17T10:02:29.126Z,26.49
2022-10-17T10:05:05.593Z,26.48
2022-10-17T10:07:37.807Z,26.59
2022-10-17T10:10:06.492Z,26.07
2022-10-17T10:12:38.165Z,25.89
2022-10-17T10:15:32.301Z,25.59
2022-10-17T10:17:58.962Z,25.86
2022-10-17T10:20:28.580Z,25.13
2022-10-17T10:23:12.614Z,25.04
2022-10-17T10:25:39.224Z,25.34
2022-10-17T10:28:10.299Z,24.90
2022-10-17T10:30:39.182Z,23.53
2022-10-17T10:33:06.736Z,23.43
2022-10-17T10:35:36.680Z,22.76
2022-10-17T10:38:10.921Z,21.47
2022-10-17T10:40:47.456Z,21.66
2022-10-17T10:43:22.026Z,21.96
2022-10-17T10:45:49.218Z,21.85
2022-10-17T10:48:23.779Z,21.85
2022-10-17T10:51:03.543Z,21.48
2022-10-17T10:53:38.354Z,21.19
2022-10-17T10:56:08.057Z,21.35
2022-10-17T10:58:40.304Z,21.50
2022-10-17T11:01:20.489Z,21.56
2022-10-17T11:03:58.855Z,21.39
2022-10-17T11:06:29.409Z,21.21
2022-10-17T11:09:41.215Z,20.75
2022-10-17T11:12:12.765Z,20.54
2022-10-17T11:14:56.101Z,20.29
2022-10-17T11:17:28.861Z,20.05
2022-10-17T11:20:23.755Z,20.09
2022-10-17T11:22:54.814Z,19.84
2022-10-17T11:25:32.106Z,19.94
2022-10-17T11:28:02.309Z,19.92
2022-10-17T11:30:41.418Z,19.80
2022-10-17T11:33:08.747Z,19.75
2022-10-17T11:35:40.700Z,19.83
2022-10-17T11:38:15.319Z,19.91
2022-10-17T11:40:48.366Z,20.21
2022-10-17T11:43:16.769Z,20.43
2022-10-17T11:45:46.246Z,20.40
2022-10-17T11:48:17.220Z,20.48
2022-10-17T11:53:46.258Z,20.20
2022-10-17T11:56:12.881Z,20.13
2022-10-17T11:58:48.931Z,20.26
2022-10-17T12:01:51.183Z,20.31
2022-10-17T12:04:49.457Z,20.44
2022-10-17T12:07:35.733Z,20.50
2022-10-17T12:10:28.496Z,20.62
2022-10-17T12:12:56.091Z,20.79
2022-10-17T12:15:22.548Z,20.68
2022-10-17T12:18:08.948Z,20.60
2022-10-17T12:20:36.101Z,20.55
2022-10-17T12:23:11.661Z,20.51
2022-10-17T12:25:52.044Z,20.57
2022-10-17T12:28:29.301Z,20.64
2022-10-17T12:31:18.657Z,20.54
2022-10-17T12:33:49.057Z,20.40
2022-10-17T12:36:18.554Z,20.61
2022-10-17T12:38:49.224Z,20.55
2022-10-17T12:41:16.991Z,20.66
2022-10-17T12:43:45.027Z,20.76
2022-10-17T12:46:11.746Z,20.68
2022-10-17T12:48:38.246Z,20.58
2022-10-17T12:51:37.409Z,20.35
2022-10-17T12:54:14.948Z,20.39
2022-10-17T12:56:48.086Z,20.29
2022-10-17T12:59:24.770Z,20.39
2022-10-17T13:01:53.508Z,20.31
2022-10-17T13:04:20.245Z,20.25
2022-10-17T13:06:48.628Z,20.29
2022-10-17T13:09:38.053Z,20.27
2022-10-17T13:12:05.743Z,20.30
2022-10-17T13:14:33.585Z,20.21
2022-10-17T13:17:05.018Z,20.23
2022-10-17T13:19:42.156Z,20.21
2022-10-17T13:22:21.586Z,20.29
2022-10-17T13:24:48.787Z,20.26
2022-10-17T13:27:24.554Z,20.28
2022-10-17T13:29:51.203Z,20.25
2022-10-17T13:32:17.968Z,20.25
2022-10-17T13:34:44.621Z,20.28
2022-10-17T13:37:13.857Z,20.22
2022-10-17T13:39:55.197Z,20.18
2022-10-17T13:42:31.541Z,20.13
2022-10-17T13:44:58.509Z,20.15
2022-10-17T13:47:27.204Z,20.00
2022-10-17T13:49:55.518Z,19.96
2022-10-17T13:52:26.719Z,20.04
2022-10-17T13:54:53.642Z,20.02
2022-10-17T13:57:28.107Z,19.93
2022-10-17T14:00:06.018Z,19.87
2022-10-17T14:02:36.197Z,19.80
2022-10-17T14:05:20.042Z,19.64
2022-10-17T14:10:41.311Z,19.58
2022-10-17T14:13:08.482Z,19.61
2022-10-17T14:15:36.113Z,19.55
2022-10-17T14:18:08.361Z,19.60
2022-10-17T14:23:38.353Z,19.64
2022-10-17T14:26:12.593Z,19.64
2022-10-17T14:28:39.890Z,19.48
2022-10-17T14:31:17.056Z,19.45
2022-10-17T14:33:50.663Z,19.44
2022-10-17T14:36:18.461Z,19.46
2022-10-17T14:38:50.250Z,19.30
2022-10-17T14:41:47.830Z,19.22
2022-10-17T14:44:53.685Z,19.26
2022-10-17T14:47:42.263Z,19.14
2022-10-17T14:50:11.843Z,19.02
2022-10-17T14:52:38.719Z,19.03
2022-10-17T14:55:24.792Z,19.05
2022-10-17T14:57:51.585Z,19.03
2022-10-17T15:00:19.821Z,19.05
2022-10-17T15:02:46.722Z,18.99
2022-10-17T15:05:19.332Z,18.87
2022-10-17T15:07:46.975Z,18.89
2022-10-17T15:10:30.489Z,18.81
2022-10-17T15:12:59.315Z,18.67
2022-10-17T15:15:28.323Z,18.71
2022-10-17T15:17:54.982Z,18.65
2022-10-17T15:20:21.768Z,18.73
2022-10-17T15:22:48.386Z,18.56
2022-10-17T15:25:15.180Z,18.57
2022-10-17T15:27:41.888Z,18.47
2022-10-17T15:30:21.621Z,18.36
2022-10-17T15:32:49.419Z,18.31
2022-10-17T15:35:16.335Z,18.22
2022-10-17T15:37:43.306Z,18.06
2022-10-17T15:40:21.348Z,18.08
2022-10-17T15:42:48.206Z,17.87
2022-10-17T15:45:18.036Z,17.80
2022-10-17T15:47:56.308Z,17.45
2022-10-17T15:50:22.905Z,17.30
2022-10-17T15:52:49.937Z,17.16
2022-10-17T15:55:16.898Z,17.04
2022-10-17T15:57:44.984Z,16.93
2022-10-17T16:00:20.085Z,16.69
2022-10-17T16:02:46.884Z,16.45
2022-10-17T16:05:16.141Z,16.34
2022-10-17T16:07:45.781Z,16.16
2022-10-17T16:10:13.825Z,15.99
2022-10-17T16:12:40.630Z,15.85
2022-10-17T16:15:15.234Z,15.66
2022-10-17T16:17:41.844Z,15.50
2022-10-17T16:20:08.779Z,15.41
2022-10-17T16:22:36.328Z,15.29
2022-10-17T16:25:06.822Z,15.14
2022-10-17T16:27:33.689Z,14.96
2022-10-17T16:30:00.341Z,14.86
2022-10-17T16:32:27.420Z,14.69
2022-10-17T16:34:54.153Z,14.58
2022-10-17T16:37:22.411Z,14.56
2022-10-17T16:39:49.223Z,14.57
2022-10-17T16:42:15.870Z,14.55
2022-10-17T16:44:42.483Z,14.60
2022-10-17T16:47:09.193Z,14.38
2022-10-17T16:49:35.823Z,14.20
2022-10-17T16:52:02.441Z,14.04
2022-10-17T16:54:29.085Z,14.04
2022-10-17T16:56:55.761Z,14.02
2022-10-17T16:59:22.643Z,13.88
2022-10-17T17:01:49.322Z,13.79
2022-10-17T17:04:16.005Z,13.76
2022-10-17T17:06:42.729Z,13.48
2022-10-17T17:09:09.426Z,13.51
2022-10-17T17:11:36.126Z,13.45
2022-10-17T17:14:02.954Z,13.23
2022-10-17T17:16:30.484Z,13.22
2022-10-17T17:19:02.138Z,13.15
2022-10-17T17:21:28.876Z,13.13
2022-10-17T17:23:55.658Z,13.13
2022-10-17T17:26:22.612Z,13.07
2022-10-17T17:28:49.764Z,13.10
2022-10-17T17:31:20.155Z,12.98
2022-10-17T17:33:46.936Z,12.95
2022-10-17T17:36:17.919Z,13.02
2022-10-17T17:38:44.658Z,12.91
2022-10-17T17:41:15.581Z,12.77
2022-10-17T17:43:46.146Z,12.57
2022-10-17T17:46:13.400Z,12.36
2022-10-17T17:48:40.641Z,12.34
2022-10-17T17:51:08.208Z,12.20
2022-10-17T17:53:35.205Z,12.22
2022-10-17T17:56:07.723Z,12.21
2022-10-17T17:58:34.874Z,12.26
2022-10-17T18:01:02.021Z,12.22
2022-10-17T18:03:29.140Z,12.02
2022-10-17T18:05:55.784Z,12.06
2022-10-17T18:08:22.470Z,12.03
2022-10-17T18:10:49.665Z,12.01
2022-10-17T18:13:16.393Z,12.08
2022-10-17T18:15:43.666Z,12.08
2022-10-17T18:18:10.312Z,12.00
2022-10-17T18:20:42.802Z,11.97
2022-10-17T18:23:10.307Z,11.84
2022-10-17T18:25:37.012Z,11.78
2022-10-17T18:28:03.912Z,11.70
2022-10-17T18:30:33.718Z,11.67
2022-10-17T18:33:01.256Z,11.63
2022-10-17T18:38:18.035Z,11.55
2022-10-17T18:40:47.286Z,11.42
2022-10-17T18:43:16.627Z,11.26
2022-10-17T18:45:43.297Z,11.24
2022-10-17T18:48:09.891Z,11.23
2022-10-17T18:50:37.102Z,11.26
2022-10-17T18:53:03.734Z,11.35
2022-10-17T18:55:30.358Z,11.33
2022-10-17T18:57:57.001Z,11.25
2022-10-17T19:00:23.679Z,11.19
2022-10-17T19:02:50.625Z,11.17
2022-10-17T19:05:17.364Z,11.19
2022-10-17T19:07:43.989Z,11.22
2022-10-17T19:10:10.827Z,11.18
2022-10-17T19:12:37.466Z,11.11
2022-10-17T19:15:04.302Z,11.10
2022-10-17T19:17:31.483Z,11.12
2022-10-17T19:19:58.294Z,11.16
2022-10-17T19:22:24.907Z,11.05
2022-10-17T19:24:51.985Z,11.01
2022-10-17T19:27:18.560Z,10.91
2022-10-17T19:29:45.325Z,10.81
2022-10-17T19:32:15.824Z,10.83
2022-10-17T19:34:44.759Z,10.78
2022-10-17T19:37:11.402Z,10.71
2022-10-17T19:39:38.066Z,10.65
2022-10-17T19:42:06.872Z,10.55
2022-10-17T19:44:34.561Z,10.51
2022-10-17T19:47:01.218Z,10.53
2022-10-17T19:49:27.991Z,10.58
2022-10-17T19:51:54.604Z,10.48
2022-10-17T19:54:21.283Z,10.41
2022-10-17T19:56:47.925Z,10.43
2022-10-17T19:59:15.862Z,10.45
2022-10-17T20:01:43.095Z,10.43
2022-10-17T20:04:10.078Z,10.35
2022-10-17T20:06:36.923Z,10.29
2022-10-17T20:09:04.595Z,10.20
2022-10-17T20:11:31.197Z,10.08
2022-10-17T20:13:59.693Z,10.10
2022-10-17T20:16:28.357Z,10.10
2022-10-17T20:18:56.070Z,10.08
2022-10-17T20:21:26.613Z,10.19
2022-10-17T20:23:53.854Z,10.19
2022-10-17T20:26:37.187Z,10.29
2022-10-17T20:29:05.445Z,10.21
2022-10-17T20:31:32.212Z,9.47
2022-10-17T20:33:59.284Z,10.18
2022-10-17T20:36:25.946Z,10.01
2022-10-17T20:38:56.712Z,10.13
2022-10-17T20:41:23.389Z,10.01
2022-10-17T20:43:51.007Z,9.85
2022-10-17T20:46:35.025Z,9.95
2022-10-17T20:49:02.876Z,9.97
2022-10-17T20:51:29.545Z,10.02
2022-10-17T20:56:25.396Z,10.11
2022-10-17T20:58:53.509Z,9.95
2022-10-17T21:01:20.223Z,9.84
2022-10-17T21:03:46.936Z,9.76
2022-10-17T21:06:13.651Z,9.71
2022-10-17T21:08:40.437Z,9.72
2022-10-17T21:11:15.962Z,9.65
2022-10-17T21:13:42.676Z,9.58
2022-10-17T21:16:18.788Z,9.56
2022-10-17T21:18:45.406Z,9.61
2022-10-17T21:21:17.888Z,9.59
2022-10-17T21:23:45.667Z,9.53
2022-10-17T21:26:12.351Z,9.47
2022-10-17T21:28:39.982Z,9.33
2022-10-17T21:31:17.652Z,9.31
2022-10-17T21:33:46.442Z,9.35
2022-10-17T21:36:13.074Z,9.38
2022-10-17T21:38:39.973Z,9.32
2022-10-17T21:41:07.535Z,9.42
2022-10-17T21:43:34.696Z,9.40
2022-10-17T21:46:03.002Z,9.26
2022-10-17T21:48:29.720Z,9.20
2022-10-17T21:51:00.601Z,9.26
2022-10-17T21:53:27.742Z,9.32
2022-10-17T21:55:54.348Z,9.26
2022-10-17T21:58:21.749Z,9.18
2022-10-17T22:00:48.320Z,9.23
2022-10-17T22:03:14.972Z,9.21
2022-10-17T22:05:41.639Z,9.09
2022-10-17T22:08:08.252Z,9.11
2022-10-17T22:10:38.304Z,8.97
2022-10-17T22:13:05.046Z,8.96
2022-10-17T22:15:31.690Z,8.93
2022-10-17T22:17:58.545Z,8.94
2022-10-17T22:20:25.100Z,8.84
2022-10-17T22:22:51.723Z,8.87
2022-10-17T22:25:18.349Z,8.90
2022-10-17T22:27:44.914Z,8.85
2022-10-17T22:30:11.807Z,8.81
2022-10-17T22:32:38.391Z,8.81
2022-10-17T22:35:05.348Z,8.80
2022-10-17T22:37:32.323Z,8.79
2022-10-17T22:39:59.298Z,8.79
2022-10-17T22:42:25.931Z,8.81
2022-10-17T22:44:52.584Z,8.81
2022-10-17T22:47:19.224Z,8.81
2022-10-17T22:49:45.925Z,8.82
2022-10-17T22:52:12.536Z,8.81
2022-10-17T22:54:39.220Z,8.74
2022-10-17T22:57:05.833Z,8.67
2022-10-17T22:59:33.305Z,8.67
2022-10-17T23:01:59.928Z,8.65
2022-10-17T23:04:26.582Z,8.66
2022-10-17T23:06:53.146Z,8.69
2022-10-17T23:09:20.897Z,8.74
2022-10-17T23:11:47.635Z,8.82
2022-10-17T23:14:14.305Z,8.86
2022-10-17T23:16:40.886Z,8.84
2022-10-17T23:19:07.562Z,8.87
2022-10-17T23:21:34.173Z,8.93
2022-10-17T23:24:00.912Z,8.96
2022-10-17T23:26:27.521Z,9.00
2022-10-17T23:28:54.515Z,8.90
2022-10-17T23:31:21.669Z,8.87
2022-10-17T23:33:48.943Z,8.90
2022-10-17T23:36:16.665Z,8.83
2022-10-17T23:38:43.919Z,8.89
2022-10-17T23:41:10.565Z,8.93
2022-10-17T23:43:37.275Z,8.87
2022-10-17T23:46:04.317Z,8.92
2022-10-17T23:48:30.970Z,8.96
2022-10-17T23:50:57.626Z,8.96
2022-10-17T23:53:24.414Z,8.94
2022-10-17T23:55:51.015Z,8.98
2022-10-17T23:58:17.636Z,8.23
